Time;durP1;ratioP1;P1;durP2;ratioP2;P2;SDS_P1;SDS_P2;PMS_P1;PMS_P2;Temp;Humidity;BMP_temperature;BMP_pressure;BME280_temperature;BME280_humidity;BME280_pressure;Samples;Min_cycle;Max_cycle;Signal;HPM_P1;HPM_P2
2022/05/15 00:01:30;;;;;;;14.30;6.83;;;7.90;99.60;;;;;;5042990;28;20226;-78
2022/05/15 00:03:57;;;;;;;13.50;6.10;;;7.90;99.40;;;;;;5041992;28;20221;-79
2022/05/15 00:06:24;;;;;;;14.97;6.60;;;7.90;99.40;;;;;;5039989;28;20226;-80
2022/05/15 00:08:50;;;;;;;13.73;6.80;;;7.80;99.30;;;;;;5044251;28;20218;-79
2022/05/15 00:11:19;;;;;;;12.73;6.73;;;7.70;99.50;;;;;;5043464;28;20231;-78
2022/05/15 00:13:48;;;;;;;15.47;6.77;;;7.70;99.90;;;;;;5038552;28;20314;-79
2022/05/15 00:16:16;;;;;;;18.50;7.00;;;7.70;99.90;;;;;;5039753;28;20729;-79
2022/05/15 00:18:43;;;;;;;12.53;6.30;;;7.60;99.90;;;;;;5043502;28;20783;-80
2022/05/15 00:21:10;;;;;;;16.43;6.77;;;7.60;99.90;;;;;;5041137;28;20744;-79
2022/05/15 00:23:37;;;;;;;17.73;7.37;;;7.60;99.90;;;;;;5040386;28;20226;-79
2022/05/15 00:26:04;;;;;;;16.47;7.60;;;7.60;99.90;;;;;;5043256;28;20697;-79
2022/05/15 00:28:32;;;;;;;14.03;7.30;;;7.60;99.90;;;;;;5040291;28;20232;-79
2022/05/15 00:30:59;;;;;;;14.20;6.53;;;7.60;99.90;;;;;;5039587;28;20230;-78
2022/05/15 00:33:25;;;;;;;17.87;7.50;;;7.50;99.90;;;;;;5038973;28;20258;-78
2022/05/15 00:35:53;;;;;;;15.97;6.67;;;7.50;99.90;;;;;;5040154;28;20234;-78
2022/05/15 00:38:19;;;;;;;14.80;5.63;;;7.50;99.90;;;;;;5039667;28;20286;-78
2022/05/15 00:40:47;;;;;;;12.87;6.03;;;7.50;99.90;;;;;;5042351;28;20247;-78
2022/05/15 00:43:40;;;;;;;12.23;6.77;;;7.50;99.90;;;;;;5037611;28;20239;-78
2022/05/15 00:46:09;;;;;;;13.83;6.40;;;7.50;99.90;;;;;;5039476;28;20226;-80
2022/05/15 00:48:35;;;;;;;10.27;5.23;;;7.50;99.90;;;;;;5040535;28;20555;-79
2022/05/15 00:51:10;;;;;;;10.53;5.17;;;7.50;99.90;;;;;;5038618;28;20235;-79
2022/05/15 00:53:39;;;;;;;14.30;6.27;;;7.40;99.90;;;;;;5038340;28;20246;-80
2022/05/15 00:56:07;;;;;;;12.37;5.70;;;7.40;99.90;;;;;;5039179;28;20217;-79
2022/05/15 00:58:39;;;;;;;11.80;5.37;;;7.40;99.90;;;;;;5041136;28;20237;-79
2022/05/15 01:01:08;;;;;;;8.87;5.37;;;7.30;99.90;;;;;;5043221;28;20228;-79
2022/05/15 01:03:34;;;;;;;12.63;5.63;;;7.30;99.90;;;;;;5040727;28;20238;-79
2022/05/15 01:06:02;;;;;;;9.73;5.10;;;7.30;99.90;;;;;;5042096;28;20237;-80
2022/05/15 01:08:31;;;;;;;13.87;6.10;;;7.20;99.90;;;;;;5040028;28;21107;-80
2022/05/15 01:11:18;;;;;;;12.17;5.20;;;7.20;99.90;;;;;;5042536;28;20254;-79
2022/05/15 01:13:50;;;;;;;13.27;5.30;;;7.10;99.90;;;;;;5072252;28;20230;-78
2022/05/15 01:16:19;;;;;;;13.07;6.00;;;7.10;99.90;;;;;;5037235;28;20221;-79
2022/05/15 01:18:47;;;;;;;11.43;5.60;;;7.10;99.90;;;;;;5059036;28;20745;-79
2022/05/15 01:21:25;;;;;;;12.60;5.23;;;7.10;99.90;;;;;;5043247;28;20879;-79
2022/05/15 01:23:55;;;;;;;9.20;5.13;;;7.00;99.90;;;;;;5038730;28;20237;-78
2022/05/15 01:26:25;;;;;;;9.90;5.03;;;7.00;99.90;;;;;;5041396;28;20304;-79
2022/05/15 01:28:53;;;;;;;9.23;5.20;;;6.90;99.90;;;;;;5041404;28;20310;-79
2022/05/15 01:31:21;;;;;;;8.90;4.50;;;6.90;99.90;;;;;;5041709;28;20233;-79
2022/05/15 01:33:49;;;;;;;6.60;4.37;;;6.90;99.90;;;;;;5042783;28;20286;-79
2022/05/15 01:36:17;;;;;;;8.13;4.30;;;6.80;99.90;;;;;;5043473;28;20222;-79
2022/05/15 01:38:47;;;;;;;11.73;5.37;;;6.80;99.90;;;;;;5041132;28;20214;-79
2022/05/15 01:41:14;;;;;;;14.50;5.93;;;6.70;99.90;;;;;;5042658;28;20221;-79
2022/05/15 01:43:43;;;;;;;10.23;5.73;;;6.70;99.90;;;;;;5041693;28;20317;-79
2022/05/15 01:46:10;;;;;;;14.47;6.20;;;6.60;99.90;;;;;;5046848;28;20222;-79
2022/05/15 01:48:38;;;;;;;15.70;6.60;;;6.60;99.90;;;;;;5043960;28;20221;-78
2022/05/15 01:51:05;;;;;;;13.03;5.20;;;6.60;99.90;;;;;;5044888;28;20231;-78
2022/05/15 01:53:32;;;;;;;11.50;5.10;;;6.60;99.90;;;;;;5042201;28;20235;-79
2022/05/15 01:56:02;;;;;;;11.40;5.73;;;6.50;99.90;;;;;;5046044;28;20263;-79
2022/05/15 01:58:29;;;;;;;10.97;4.70;;;6.50;99.90;;;;;;5044128;28;20260;-79
2022/05/15 02:00:56;;;;;;;12.17;5.63;;;6.50;99.90;;;;;;5042858;28;20298;-79
2022/05/15 02:03:22;;;;;;;10.13;5.20;;;6.40;99.90;;;;;;5044792;28;20314;-79
2022/05/15 02:05:50;;;;;;;9.77;4.87;;;6.40;99.90;;;;;;5046454;28;20232;-80
2022/05/15 02:08:17;;;;;;;11.87;5.47;;;6.40;99.90;;;;;;5047071;28;20784;-80
2022/05/15 02:10:44;;;;;;;9.00;4.50;;;6.30;99.90;;;;;;5043445;28;20351;-80
2022/05/15 02:13:13;;;;;;;9.03;4.70;;;6.30;99.90;;;;;;5044298;28;20232;-80
2022/05/15 02:15:40;;;;;;;9.70;4.93;;;6.20;99.90;;;;;;5076153;28;20217;-79
2022/05/15 02:18:07;;;;;;;10.97;4.87;;;6.20;99.90;;;;;;5045447;28;20750;-79
2022/05/15 02:20:34;;;;;;;8.90;4.40;;;6.20;99.90;;;;;;5043643;28;20230;-79
2022/05/15 02:23:01;;;;;;;9.07;4.80;;;6.20;99.90;;;;;;5047798;28;20219;-80
2022/05/15 02:25:29;;;;;;;6.27;4.17;;;6.10;99.90;;;;;;5044219;28;20994;-82
2022/05/15 02:27:56;;;;;;;9.17;4.40;;;6.10;99.90;;;;;;5047315;28;20543;-80
2022/05/15 02:30:25;;;;;;;9.97;5.43;;;6.00;99.90;;;;;;5047296;28;20275;-80
2022/05/15 02:32:52;;;;;;;11.73;5.67;;;6.00;99.90;;;;;;5045221;28;20233;-79
2022/05/15 02:35:19;;;;;;;12.20;5.67;;;6.00;99.90;;;;;;5044788;28;20296;-78
2022/05/15 02:37:47;;;;;;;6.47;4.00;;;5.90;99.90;;;;;;5044938;28;20764;-78
2022/05/15 02:40:17;;;;;;;6.80;4.77;;;5.90;99.90;;;;;;5043564;28;20219;-79
2022/05/15 02:42:44;;;;;;;11.30;4.60;;;5.90;99.90;;;;;;5045239;28;20221;-79
2022/05/15 02:45:12;;;;;;;11.93;5.33;;;5.80;99.90;;;;;;5037994;28;20280;-79
2022/05/15 02:47:41;;;;;;;9.87;4.83;;;5.80;99.90;;;;;;5043943;28;20324;-78
2022/05/15 02:52:55;;;;;;;9.23;5.07;;;5.80;99.90;;;;;;5044564;28;20218;-79
2022/05/15 02:55:23;;;;;;;9.10;5.37;;;5.80;99.90;;;;;;5044588;28;20233;-79
2022/05/15 02:57:50;;;;;;;10.77;4.90;;;5.70;99.90;;;;;;5043421;28;20225;-79
2022/05/15 03:00:19;;;;;;;11.73;5.53;;;5.70;99.90;;;;;;5042468;28;20329;-79
2022/05/15 03:02:48;;;;;;;8.80;4.90;;;5.70;99.90;;;;;;5044611;28;20256;-78
2022/05/15 03:05:17;;;;;;;12.57;6.17;;;5.70;99.90;;;;;;5040013;28;20578;-78
2022/05/15 03:07:44;;;;;;;11.70;5.00;;;5.70;99.90;;;;;;5041917;28;20249;-78
2022/05/15 03:10:14;;;;;;;7.97;4.57;;;5.60;99.90;;;;;;5044248;28;20225;-78
2022/05/15 03:12:41;;;;;;;14.63;4.87;;;5.60;99.90;;;;;;5045787;28;20255;-80
2022/05/15 03:15:12;;;;;;;9.83;5.50;;;5.60;99.90;;;;;;5034077;28;20357;-78
2022/05/15 03:17:39;;;;;;;9.90;4.90;;;5.60;99.90;;;;;;5046187;28;20226;-78
2022/05/15 03:20:08;;;;;;;10.43;5.37;;;5.60;99.90;;;;;;5043696;28;20224;-79
2022/05/15 03:22:36;;;;;;;8.40;4.90;;;5.50;99.90;;;;;;5042216;28;20236;-78
2022/05/15 03:25:03;;;;;;;9.87;5.00;;;5.50;99.90;;;;;;5043513;28;20219;-79
2022/05/15 03:27:31;;;;;;;10.63;5.03;;;5.50;99.90;;;;;;5041738;28;20238;-78
2022/05/15 03:29:57;;;;;;;9.07;5.03;;;5.50;99.90;;;;;;5043710;28;20222;-79
2022/05/15 03:32:25;;;;;;;9.57;6.00;;;5.50;99.90;;;;;;5043122;28;20237;-80
2022/05/15 03:34:51;;;;;;;11.60;6.13;;;5.50;99.90;;;;;;5043155;28;20216;-79
2022/05/15 03:37:19;;;;;;;9.80;5.33;;;5.50;99.90;;;;;;5041805;28;20226;-80
2022/05/15 03:39:46;;;;;;;11.57;5.87;;;5.50;99.90;;;;;;5069367;28;20227;-79
2022/05/15 03:42:13;;;;;;;10.23;5.97;;;5.40;99.90;;;;;;5039119;28;20264;-79
2022/05/15 03:44:40;;;;;;;9.27;4.60;;;5.40;99.90;;;;;;5035688;28;20216;-79
2022/05/15 03:47:07;;;;;;;11.23;5.37;;;5.40;99.90;;;;;;5042394;28;20751;-79
2022/05/15 03:49:34;;;;;;;11.07;5.90;;;5.40;99.90;;;;;;5038919;28;20242;-79
2022/05/15 03:52:02;;;;;;;13.37;6.97;;;5.40;99.90;;;;;;5069187;28;20327;-78
2022/05/15 03:54:31;;;;;;;12.17;6.17;;;5.40;99.90;;;;;;5037665;28;20220;-79
2022/05/15 03:56:57;;;;;;;10.57;5.70;;;5.50;99.90;;;;;;5043270;28;20228;-79
2022/05/15 03:59:28;;;;;;;10.27;5.60;;;5.50;99.90;;;;;;5039815;28;20904;-79
2022/05/15 04:01:54;;;;;;;8.67;6.00;;;5.50;99.90;;;;;;5039900;28;20224;-79
2022/05/15 04:04:22;;;;;;;11.60;6.60;;;5.50;99.90;;;;;;5041428;28;20229;-79
2022/05/15 04:06:49;;;;;;;10.87;5.70;;;5.50;99.90;;;;;;5039117;28;20298;-79
2022/05/15 04:09:16;;;;;;;9.50;5.40;;;5.60;99.90;;;;;;5039298;28;20217;-79
2022/05/15 04:11:44;;;;;;;11.00;5.80;;;5.60;99.90;;;;;;5039713;28;20241;-79
2022/05/15 04:14:11;;;;;;;9.83;5.67;;;5.70;99.90;;;;;;5039675;28;20223;-79
2022/05/15 04:16:38;;;;;;;10.73;5.43;;;5.70;99.90;;;;;;5041641;28;20311;-79
2022/05/15 04:19:06;;;;;;;13.27;5.40;;;5.70;99.90;;;;;;5036248;28;20224;-78
2022/05/15 04:21:37;;;;;;;11.77;6.33;;;5.80;99.90;;;;;;5036604;28;20731;-78
2022/05/15 04:24:05;;;;;;;8.03;5.90;;;5.80;99.90;;;;;;5036893;28;20240;-78
2022/05/15 04:26:32;;;;;;;11.97;5.90;;;5.90;99.90;;;;;;5039430;28;20230;-78
2022/05/15 04:29:01;;;;;;;8.47;5.37;;;5.90;99.90;;;;;;5038651;28;20218;-78
2022/05/15 04:31:28;;;;;;;8.33;5.07;;;5.90;99.90;;;;;;5037417;28;20233;-79
2022/05/15 04:33:55;;;;;;;9.67;5.13;;;6.00;99.90;;;;;;5038362;28;20217;-77
2022/05/15 04:36:22;;;;;;;8.90;5.20;;;6.10;99.90;;;;;;5038749;28;20236;-77
2022/05/15 04:38:49;;;;;;;11.87;6.40;;;6.10;99.90;;;;;;5036443;28;20224;-77
2022/05/15 04:41:15;;;;;;;9.77;5.40;;;6.20;99.90;;;;;;5040092;28;20231;-77
2022/05/15 04:43:42;;;;;;;12.47;6.10;;;6.30;99.90;;;;;;5035152;28;20215;-78
2022/05/15 04:46:10;;;;;;;8.93;5.13;;;6.40;99.90;;;;;;5039933;28;20325;-76
2022/05/15 04:48:38;;;;;;;13.13;8.43;;;6.50;99.90;;;;;;5037370;28;20251;-77
2022/05/15 04:51:05;;;;;;;55.73;30.93;;;6.50;99.90;;;;;;5039733;28;20222;-77
2022/05/15 04:53:31;;;;;;;90.33;46.77;;;6.60;99.90;;;;;;5036886;28;20222;-78
2022/05/15 04:55:59;;;;;;;34.73;20.23;;;6.70;99.90;;;;;;5041705;28;20539;-78
2022/05/15 04:58:26;;;;;;;19.93;11.03;;;6.70;99.90;;;;;;5039617;28;20286;-77
2022/05/15 05:00:53;;;;;;;27.87;23.03;;;6.80;99.90;;;;;;5042562;28;20225;-78
2022/05/15 05:03:22;;;;;;;15.80;10.57;;;6.90;99.90;;;;;;5039600;28;20317;-76
2022/05/15 05:05:48;;;;;;;16.80;10.23;;;6.90;99.90;;;;;;5040344;28;20221;-77
2022/05/15 05:08:15;;;;;;;18.13;7.50;;;7.00;99.90;;;;;;5041216;28;20222;-76
2022/05/15 05:10:42;;;;;;;16.07;9.63;;;7.10;99.90;;;;;;5041819;28;20229;-77
2022/05/15 05:13:09;;;;;;;18.67;8.83;;;7.20;99.90;;;;;;5037602;28;20229;-78
2022/05/15 05:15:36;;;;;;;13.33;8.90;;;7.30;99.90;;;;;;5036015;28;20231;-78
2022/05/15 05:18:03;;;;;;;19.83;9.80;;;7.40;99.90;;;;;;5042386;28;20229;-78
2022/05/15 05:20:31;;;;;;;16.63;8.73;;;7.50;99.90;;;;;;5037395;28;20280;-76
2022/05/15 05:22:58;;;;;;;23.83;9.77;;;7.50;99.90;;;;;;5037596;28;20229;-78
2022/05/15 05:25:25;;;;;;;15.37;8.47;;;7.60;99.90;;;;;;5040195;28;20228;-78
2022/05/15 05:27:51;;;;;;;13.13;7.90;;;7.70;99.90;;;;;;5040128;28;20264;-78
2022/05/15 05:30:22;;;;;;;19.57;9.07;;;7.80;99.90;;;;;;5035884;28;20227;-79
2022/05/15 05:32:49;;;;;;;16.40;8.87;;;7.90;99.90;;;;;;5038251;28;20898;-77
2022/05/15 05:35:18;;;;;;;25.33;8.93;;;8.00;99.90;;;;;;5036797;28;20795;-77
2022/05/15 05:37:46;;;;;;;21.60;8.27;;;8.10;99.90;;;;;;5036576;28;20598;-77
2022/05/15 05:40:13;;;;;;;26.00;9.33;;;8.20;99.90;;;;;;5036647;28;20214;-76
2022/05/15 05:42:40;;;;;;;15.80;7.20;;;8.30;99.90;;;;;;5032263;28;20722;-77
2022/05/15 05:45:08;;;;;;;23.03;8.20;;;8.40;99.90;;;;;;5029624;28;20230;-77
2022/05/15 05:47:35;;;;;;;19.40;7.40;;;8.50;99.90;;;;;;5036743;28;20315;-77
2022/05/15 05:50:02;;;;;;;16.23;6.77;;;8.50;99.90;;;;;;5038648;28;20230;-76
2022/05/15 05:52:28;;;;;;;25.73;7.07;;;8.60;99.90;;;;;;5040029;28;20650;-78
2022/05/15 05:54:56;;;;;;;15.60;6.03;;;8.70;99.90;;;;;;5033313;28;20596;-77
2022/05/15 05:57:23;;;;;;;14.03;5.30;;;8.80;99.90;;;;;;5031557;28;20234;-77
2022/05/15 05:59:50;;;;;;;15.43;5.43;;;8.90;99.90;;;;;;5033966;28;20220;-77
2022/05/15 06:02:16;;;;;;;16.10;5.70;;;9.00;99.90;;;;;;5038407;28;20326;-76
2022/05/15 06:04:44;;;;;;;13.77;4.80;;;9.10;99.90;;;;;;5030159;28;20230;-76
2022/05/15 06:07:13;;;;;;;14.17;5.23;;;9.20;99.90;;;;;;5038539;28;20406;-77
2022/05/15 06:09:42;;;;;;;16.83;4.70;;;9.30;99.90;;;;;;5048937;28;20869;-77
2022/05/15 06:12:12;;;;;;;14.83;4.97;;;9.40;99.90;;;;;;5036319;28;20230;-77
2022/05/15 06:14:39;;;;;;;10.43;4.40;;;9.50;99.90;;;;;;5037307;28;20276;-77
2022/05/15 06:17:06;;;;;;;10.73;4.50;;;9.60;99.90;;;;;;5035980;28;20234;-77
2022/05/15 06:19:34;;;;;;;13.33;4.97;;;9.80;99.90;;;;;;5037893;28;20297;-77
2022/05/15 06:22:00;;;;;;;11.00;4.70;;;9.90;99.90;;;;;;5032797;28;20217;-77
2022/05/15 06:24:28;;;;;;;10.90;3.93;;;10.00;99.90;;;;;;5032400;28;20228;-77
2022/05/15 06:26:57;;;;;;;8.27;3.60;;;10.10;99.90;;;;;;5041656;28;20560;-79
2022/05/15 06:29:25;;;;;;;11.10;3.10;;;10.30;99.90;;;;;;5039523;28;20370;-79
2022/05/15 06:31:52;;;;;;;5.50;2.63;;;10.40;99.90;;;;;;5045257;28;20229;-79
2022/05/15 06:34:19;;;;;;;5.50;2.50;;;10.40;99.90;;;;;;5042294;28;20231;-79
2022/05/15 06:36:46;;;;;;;7.47;3.10;;;10.50;99.90;;;;;;5044090;28;20804;-79
2022/05/15 06:39:13;;;;;;;6.47;3.37;;;10.60;99.90;;;;;;5045024;28;20219;-79
2022/05/15 06:41:42;;;;;;;5.13;2.27;;;10.60;99.90;;;;;;5068838;28;20257;-78
2022/05/15 06:44:09;;;;;;;5.97;2.57;;;10.70;99.90;;;;;;5055138;28;20224;-78
2022/05/15 06:46:37;;;;;;;5.57;2.70;;;10.90;99.90;;;;;;5042394;28;20901;-77
2022/05/15 06:49:04;;;;;;;7.07;2.90;;;11.10;99.90;;;;;;5042411;28;20247;-77
2022/05/15 06:51:30;;;;;;;5.70;1.93;;;11.30;99.90;;;;;;5043114;28;20250;-77
2022/05/15 06:53:57;;;;;;;2.80;1.43;;;11.50;99.90;;;;;;5042316;28;20271;-78
2022/05/15 06:59:10;;;;;;;4.67;2.27;;;11.90;99.90;;;;;;5013643;28;20316;-78
2022/05/15 07:01:38;;;;;;;6.47;2.20;;;12.30;99.90;;;;;;5041185;28;20230;-76
2022/05/15 07:04:05;;;;;;;4.57;1.80;;;12.80;99.90;;;;;;5041361;28;20742;-77
2022/05/15 07:06:32;;;;;;;4.67;1.90;;;13.50;99.90;;;;;;5041303;28;20876;-77
2022/05/15 07:08:59;;;;;;;4.87;1.93;;;14.20;99.90;;;;;;5042897;28;20215;-78
2022/05/15 07:11:26;;;;;;;2.80;1.70;;;15.00;99.90;;;;;;5044322;28;20620;-77
2022/05/15 07:13:53;;;;;;;5.37;1.90;;;16.00;99.80;;;;;;5042961;28;20234;-77
2022/05/15 07:16:19;;;;;;;3.23;1.50;;;16.90;98.70;;;;;;5040382;28;20233;-77
2022/05/15 07:18:48;;;;;;;3.60;1.50;;;17.80;97.40;;;;;;5037599;28;20589;-76
2022/05/15 07:21:14;;;;;;;3.73;1.70;;;18.60;94.40;;;;;;5042806;28;20616;-79
2022/05/15 07:23:42;;;;;;;2.90;1.37;;;19.30;91.70;;;;;;5047400;28;20259;-79
2022/05/15 07:26:09;;;;;;;2.80;1.33;;;19.80;91.90;;;;;;5043886;28;20423;-79
2022/05/15 07:28:35;;;;;;;3.70;1.25;;;20.20;91.00;;;;;;5044865;28;20315;-79
2022/05/15 07:31:04;;;;;;;4.10;1.25;;;20.70;90.40;;;;;;5042132;28;20228;-79
2022/05/15 07:33:34;;;;;;;2.53;1.27;;;21.20;88.00;;;;;;5044976;28;20258;-80
2022/05/15 07:36:02;;;;;;;3.08;1.10;;;21.50;83.00;;;;;;5047297;28;20224;-79
2022/05/15 07:38:31;;;;;;;3.55;1.40;;;21.80;82.60;;;;;;5042754;28;20830;-79
2022/05/15 07:40:57;;;;;;;2.85;1.50;;;22.10;81.90;;;;;;5042882;28;20239;-79
2022/05/15 07:43:24;;;;;;;3.38;1.20;;;22.40;83.00;;;;;;5038443;28;20224;-78
2022/05/15 07:45:51;;;;;;;3.25;1.25;;;22.70;80.70;;;;;;5054646;28;20311;-78
2022/05/15 07:48:17;;;;;;;2.53;1.38;;;23.00;75.80;;;;;;5037945;28;20220;-78
2022/05/15 07:50:44;;;;;;;1.80;1.10;;;23.10;76.10;;;;;;5040068;28;20220;-78
2022/05/15 07:53:12;;;;;;;3.25;1.20;;;23.30;75.50;;;;;;5040128;28;20239;-78
2022/05/15 07:55:39;;;;;;;94.38;41.70;;;23.30;73.20;;;;;;5040576;28;20332;-78
2022/05/15 07:58:06;;;;;;;9.45;3.75;;;23.40;74.50;;;;;;5043708;28;20250;-79
2022/05/15 08:00:33;;;;;;;3.67;1.70;;;23.50;73.50;;;;;;5046070;28;20216;-79
2022/05/15 08:03:07;;;;;;;2.17;1.05;;;23.80;72.80;;;;;;5047122;28;20883;-79
2022/05/15 08:08:20;;;;;;;1.75;1.05;;;24.20;69.10;;;;;;5056588;28;20235;-79
2022/05/15 08:10:47;;;;;;;3.85;1.60;;;24.30;68.90;;;;;;5051193;28;20312;-79
2022/05/15 08:13:17;;;;;;;4.25;2.17;;;24.40;69.70;;;;;;5047719;28;20216;-79
2022/05/15 08:15:44;;;;;;;1.90;1.10;;;24.70;68.30;;;;;;5048255;28;20246;-79
2022/05/15 08:23:46;;;;;;;2.42;0.80;;;25.60;65.40;;;;;;5046277;28;20373;-79
2022/05/15 08:26:12;;;;;;;1.27;0.80;;;26.00;63.70;;;;;;5045491;28;20224;-80
2022/05/15 08:28:39;;;;;;;2.65;1.20;;;26.30;62.90;;;;;;5046408;28;20307;-79
2022/05/15 08:31:09;;;;;;;0.98;0.70;;;26.60;62.60;;;;;;5044502;28;20212;-79
2022/05/15 08:33:36;;;;;;;1.17;0.80;;;26.90;61.30;;;;;;5046004;28;20228;-79
2022/05/15 08:36:06;;;;;;;1.50;0.70;;;27.20;59.30;;;;;;5045803;28;20234;-80
2022/05/15 08:38:33;;;;;;;2.17;0.90;;;27.50;58.80;;;;;;5046514;28;20231;-80
2022/05/15 08:41:04;;;;;;;0.68;0.57;;;27.70;58.00;;;;;;5041867;28;20220;-79
2022/05/15 08:43:42;;;;;;;1.23;0.40;;;27.90;54.30;;;;;;5013346;28;20236;-80
2022/05/15 08:46:25;;;;;;;0.80;0.60;;;27.80;48.70;;;;;;5038274;28;20243;-80
2022/05/15 08:48:56;;;;;;;0.90;0.70;;;27.70;51.50;;;;;;5045493;28;20227;-79
2022/05/15 08:51:23;;;;;;;8.73;4.75;;;27.50;52.60;;;;;;5044039;28;20238;-79
2022/05/15 08:53:51;;;;;;;1.67;0.80;;;27.40;53.80;;;;;;5045727;28;20748;-79
2022/05/15 08:56:19;;;;;;;0.30;0.30;;;27.50;52.90;;;;;;5045149;28;20242;-79
2022/05/15 08:58:51;;;;;;;0.35;0.20;;;27.60;49.70;;;;;;5037188;28;20236;-79
2022/05/15 09:01:20;;;;;;;0.90;0.38;;;27.60;49.20;;;;;;5044540;28;20232;-80
2022/05/15 09:03:47;;;;;;;1.63;0.70;;;27.70;50.30;;;;;;5045341;28;20228;-80
2022/05/15 09:06:25;;;;;;;0.77;0.38;;;27.90;50.40;;;;;;5045377;28;20278;-79
2022/05/15 09:09:11;;;;;;;0.85;0.50;;;28.10;49.00;;;;;;5043430;28;20232;-79
2022/05/15 09:12:02;;;;;;;0.90;0.40;;;28.40;49.50;;;;;;5044865;28;20223;-79
2022/05/15 09:14:48;;;;;;;1.55;0.50;;;28.70;49.80;;;;;;5046113;28;20453;-79
2022/05/15 09:17:22;;;;;;;1.67;0.50;;;28.90;48.70;;;;;;5050210;28;20229;-79
2022/05/15 09:19:53;;;;;;;0.57;0.50;;;29.10;47.30;;;;;;5045263;28;20219;-79
2022/05/15 09:22:21;;;;;;;0.70;0.50;;;29.20;46.00;;;;;;5045254;28;20251;-79
2022/05/15 09:24:51;;;;;;;1.38;0.50;;;29.20;46.90;;;;;;5044752;28;20219;-79
2022/05/15 09:27:21;;;;;;;1.63;0.40;;;29.10;46.80;;;;;;5050730;28;20232;-79
2022/05/15 09:29:55;;;;;;;2.13;0.80;;;29.10;45.60;;;;;;5042434;28;20703;-79
2022/05/15 09:32:38;;;;;;;1.25;0.50;;;29.10;46.10;;;;;;5040283;28;20602;-78
2022/05/15 09:35:11;;;;;;;0.98;0.60;;;29.20;45.40;;;;;;5049726;28;20326;-78
2022/05/15 09:40:40;;;;;;;1.00;0.70;;;29.40;45.40;;;;;;5039883;28;20232;-79
2022/05/15 09:43:32;;;;;;;0.85;0.60;;;29.50;45.50;;;;;;5048484;28;20287;-79
2022/05/15 09:46:06;;;;;;;1.05;0.60;;;29.50;43.90;;;;;;5038178;28;20224;-79
2022/05/15 09:48:37;;;;;;;1.08;0.52;;;29.70;44.90;;;;;;5044517;28;20236;-79
2022/05/15 09:51:09;;;;;;;0.50;0.40;;;29.90;43.70;;;;;;5043737;28;20227;-79
2022/05/15 09:53:41;;;;;;;0.75;0.65;;;30.10;42.70;;;;;;5047721;28;20258;-79
2022/05/15 09:56:12;;;;;;;1.65;0.60;;;30.20;42.20;;;;;;5051313;28;20224;-79
2022/05/15 09:58:45;;;;;;;1.27;0.60;;;30.30;42.70;;;;;;5051464;28;20323;-79
2022/05/15 10:01:20;;;;;;;2.33;0.70;;;30.40;42.60;;;;;;5044574;28;20247;-79
2022/05/15 10:03:49;;;;;;;1.52;0.63;;;30.50;42.00;;;;;;5044638;28;20481;-79
2022/05/15 10:06:20;;;;;;;1.75;0.90;;;30.60;42.10;;;;;;5050532;28;20328;-79
2022/05/15 10:09:04;;;;;;;1.48;0.68;;;30.70;40.80;;;;;;5058826;28;20243;-79
2022/05/15 10:11:32;;;;;;;1.83;0.77;;;30.70;40.70;;;;;;5042711;28;20229;-79
2022/05/15 10:14:02;;;;;;;2.42;0.68;;;30.80;40.80;;;;;;5051448;28;20246;-79
2022/05/15 10:16:32;;;;;;;2.38;0.90;;;31.00;40.20;;;;;;5043504;28;20274;-79
2022/05/15 10:19:03;;;;;;;3.65;0.98;;;31.10;40.70;;;;;;5042902;28;20238;-79
2022/05/15 10:21:43;;;;;;;1.48;0.75;;;31.20;39.60;;;;;;5050573;28;20232;-79
2022/05/15 10:24:16;;;;;;;1.25;0.70;;;31.10;39.50;;;;;;5041399;28;21061;-79
2022/05/15 10:26:51;;;;;;;2.72;1.08;;;31.10;40.10;;;;;;5048444;28;20235;-79
2022/05/15 10:29:25;;;;;;;1.00;0.68;;;31.00;39.50;;;;;;5055612;28;20699;-79
2022/05/15 10:31:57;;;;;;;2.80;0.80;;;31.00;40.00;;;;;;5048130;28;20370;-79
2022/05/15 10:34:26;;;;;;;2.97;1.55;;;30.80;39.80;;;;;;5044997;28;20305;-79
2022/05/15 10:37:08;;;;;;;2.72;1.73;;;30.70;40.10;;;;;;5055354;28;20249;-79
2022/05/15 10:39:57;;;;;;;1.10;0.68;;;30.60;40.00;;;;;;5048312;28;20214;-79
2022/05/15 10:42:31;;;;;;;1.20;0.65;;;30.60;40.00;;;;;;5045380;28;20223;-79
2022/05/15 10:45:08;;;;;;;1.55;0.90;;;30.60;40.10;;;;;;5047082;28;20233;-79
2022/05/15 10:47:44;;;;;;;3.75;1.98;;;30.70;39.90;;;;;;5041801;28;20224;-79
2022/05/15 10:50:25;;;;;;;1.70;0.75;;;30.90;40.50;;;;;;5057245;28;20728;-79
2022/05/15 10:57:21;;;;;;;18.98;13.25;;;31.10;39.60;;;;;;5050406;28;20306;-79
2022/05/15 10:58:54;;;;;;;2.15;0.63;;;31.60;37.60;;;;;;5058596;28;20358;-79
2022/05/15 11:01:30;;;;;;;1.48;0.77;;;31.60;37.80;;;;;;5040524;28;20752;-79
2022/05/15 11:04:10;;;;;;;2.05;0.70;;;31.60;38.30;;;;;;5051069;28;20251;-79
2022/05/15 11:07:00;;;;;;;1.23;0.63;;;31.50;37.30;;;;;;5047954;28;20252;-79
2022/05/15 11:09:36;;;;;;;1.15;0.60;;;31.30;37.70;;;;;;5053697;28;20303;-79
2022/05/15 11:12:20;;;;;;;2.08;0.70;;;31.20;37.20;;;;;;5044952;28;20296;-79
2022/05/15 11:14:57;;;;;;;1.50;0.73;;;31.10;37.90;;;;;;5046236;28;20238;-79
2022/05/15 11:17:32;;;;;;;1.20;0.90;;;31.10;37.80;;;;;;5044314;28;20230;-79
2022/05/15 11:20:06;;;;;;;2.17;0.95;;;31.00;37.50;;;;;;5039923;28;20573;-79
2022/05/15 11:22:39;;;;;;;1.30;0.60;;;30.90;37.40;;;;;;5052200;28;20807;-79
2022/05/15 11:25:12;;;;;;;2.35;0.82;;;30.90;37.70;;;;;;5048194;28;20230;-79
2022/05/15 11:27:45;;;;;;;2.15;0.98;;;30.90;38.00;;;;;;5044106;28;20255;-79
2022/05/15 11:30:18;;;;;;;4.65;1.50;;;30.90;38.20;;;;;;5045659;28;20216;-80
2022/05/15 11:33:04;;;;;;;1.00;0.90;;;31.00;39.00;;;;;;5044716;28;20232;-79
2022/05/15 11:35:37;;;;;;;3.08;0.90;;;31.00;38.30;;;;;;5048505;28;20220;-79
2022/05/15 11:38:11;;;;;;;1.65;1.00;;;31.00;36.90;;;;;;5049226;28;20230;-80
2022/05/15 11:40:40;;;;;;;1.13;0.70;;;30.80;37.20;;;;;;5047685;28;20636;-79
2022/05/15 11:43:52;;;;;;;1.45;0.50;;;30.70;37.30;;;;;;5047291;28;20311;-79
2022/05/15 11:46:19;;;;;;;2.17;0.63;;;30.50;38.20;;;;;;5039422;28;20696;-79
2022/05/15 11:48:56;;;;;;;2.60;0.82;;;30.50;38.90;;;;;;5042146;28;20243;-79
2022/05/15 11:51:32;;;;;;;3.10;0.80;;;30.40;37.90;;;;;;5046955;28;20227;-80
2022/05/15 11:54:02;;;;;;;2.45;1.90;;;30.50;38.60;;;;;;5039145;28;20712;-79
2022/05/15 11:56:37;;;;;;;1.10;0.70;;;30.50;38.70;;;;;;5045870;28;20322;-79
2022/05/15 11:59:08;;;;;;;1.05;0.70;;;30.60;37.70;;;;;;5047627;28;20860;-80
2022/05/15 12:01:45;;;;;;;1.30;0.70;;;30.60;37.30;;;;;;5042704;28;20305;-79
2022/05/15 12:04:23;;;;;;;1.67;1.00;;;30.60;37.30;;;;;;5043782;28;20227;-79
2022/05/15 12:07:11;;;;;;;1.95;0.63;;;30.60;37.60;;;;;;5051572;28;20306;-79
2022/05/15 12:09:52;;;;;;;1.10;0.70;;;30.50;38.10;;;;;;5039306;28;20314;-80
2022/05/15 12:12:56;;;;;;;1.48;0.82;;;30.30;37.50;;;;;;5048746;28;20712;-79
2022/05/15 12:15:41;;;;;;;2.20;0.80;;;30.20;38.40;;;;;;5044932;28;20289;-79
2022/05/15 12:18:23;;;;;;;1.98;1.05;;;30.10;38.90;;;;;;5045626;28;20661;-80
2022/05/15 12:20:53;;;;;;;1.98;1.17;;;30.10;38.50;;;;;;5051767;28;20258;-79
2022/05/15 12:23:22;;;;;;;2.03;1.00;;;30.00;38.00;;;;;;5053165;28;20228;-79
2022/05/15 12:25:55;;;;;;;2.60;1.05;;;30.00;38.50;;;;;;5047104;28;20227;-80
2022/05/15 12:28:53;;;;;;;1.92;1.10;;;30.00;38.10;;;;;;5051853;28;20314;-80
2022/05/15 12:31:30;;;;;;;0.80;0.73;;;29.90;37.60;;;;;;5042707;28;20706;-79
2022/05/15 12:34:05;;;;;;;2.47;0.80;;;29.80;38.40;;;;;;5054702;28;20227;-79
2022/05/15 12:36:38;;;;;;;1.77;1.00;;;29.70;38.40;;;;;;5050830;28;20235;-79
2022/05/15 12:39:06;;;;;;;2.78;1.10;;;29.60;38.20;;;;;;5037559;28;20231;-79
2022/05/15 12:41:36;;;;;;;1.85;1.00;;;29.60;38.10;;;;;;5045753;28;20247;-79
2022/05/15 12:44:05;;;;;;;1.25;0.80;;;29.40;38.00;;;;;;5047999;28;20227;-79
2022/05/15 12:46:36;;;;;;;1.45;0.80;;;29.20;38.10;;;;;;5046557;28;20599;-79
2022/05/15 12:49:04;;;;;;;2.70;1.02;;;29.10;38.50;;;;;;5070126;28;20226;-79
2022/05/15 12:51:34;;;;;;;1.55;0.80;;;28.90;38.60;;;;;;5044513;28;20232;-79
2022/05/15 12:54:02;;;;;;;2.03;0.90;;;28.80;39.20;;;;;;5049475;28;20249;-79
2022/05/15 12:56:31;;;;;;;1.83;0.77;;;28.90;39.60;;;;;;5041776;28;20278;-79
2022/05/15 12:59:01;;;;;;;2.00;0.80;;;29.00;39.30;;;;;;5051083;28;20280;-80
2022/05/15 13:01:31;;;;;;;1.38;0.90;;;29.00;39.60;;;;;;5037210;28;20233;-80
2022/05/15 13:04:01;;;;;;;1.90;0.70;;;29.00;40.00;;;;;;5055396;28;20216;-80
2022/05/15 13:06:34;;;;;;;1.17;0.90;;;29.00;39.70;;;;;;5043775;28;20281;-79
2022/05/15 13:09:05;;;;;;;1.77;0.90;;;29.00;40.20;;;;;;5045468;28;20307;-80
2022/05/15 13:11:39;;;;;;;0.90;0.60;;;29.10;39.60;;;;;;5045059;28;20223;-79
2022/05/15 13:14:13;;;;;;;1.58;0.60;;;29.10;39.50;;;;;;5038180;28;20249;-80
2022/05/15 13:16:45;;;;;;;1.50;1.13;;;29.20;39.10;;;;;;5045197;28;20728;-80
2022/05/15 13:19:14;;;;;;;1.58;0.90;;;29.20;38.90;;;;;;5039359;28;21129;-80
2022/05/15 13:21:45;;;;;;;2.65;1.10;;;29.30;38.70;;;;;;5048351;28;20242;-79
2022/05/15 13:24:16;;;;;;;2.42;0.80;;;29.20;38.50;;;;;;5039455;28;20317;-79